Kriti Ruby — SVAT5 — position and weather

sailwx.info

Track history (hours):
 
Tides and Currents Weather Stations Pressure Air Temp Water Temp Dewpoint Dewpoint Depression Visibility Wind Speed Wind Dir Waves Ship Positions

Kriti Ruby

Last reported at 2017-May-27 19:29 UTC. Time now 2017-May-27 19:28 UTC.
Position N 44°03' E 039°05'.

Length 183 m; draft 8.5 m.

Type: Tanker. MMSI: 240941000.

Date/timePositionNaut miles runAvg speedWind from/ knotsBaromVisibWave heightAir tempDewpointWater temp
2017-May-27 19:29N 44°03' E 039°05'0 0.1
2017-May-27 18:59N 44°03' E 039°05'0 0.1
2017-May-27 18:29N 44°03' E 039°05'0 0.1
2017-May-27 17:59N 44°03' E 039°05'0 0.1
2017-May-27 17:29N 44°03' E 039°05'0 0.0
2017-May-27 16:59N 44°03' E 039°05'0 0.0
2017-May-27 16:29N 44°03' E 039°05'0 0.0
2017-May-27 15:59N 44°03' E 039°05'0 0.0
2017-May-27 15:29N 44°03' E 039°05'0 0.0
2017-May-27 14:59N 44°03' E 039°05'0 0.0
2017-May-27 14:29N 44°03' E 039°05'0 0.1
2017-May-27 13:29N 44°03' E 039°05'0 0.0
2017-May-27 12:59N 44°03' E 039°05'0 0.0
2017-May-27 12:29N 44°03' E 039°05'0 0.1
2017-May-27 11:59N 44°03' E 039°05'0 0.0
2017-May-27 11:29N 44°03' E 039°05'0 0.0
2017-May-27 10:59N 44°03' E 039°05'0 0.1
2017-May-27 10:23N 44°03' E 039°05'0 0.0
2017-May-27 09:59N 44°03' E 039°05'0 0.0
2017-May-27 09:29N 44°03' E 039°05'0 0.0
2017-May-27 08:59N 44°03' E 039°05'0 0.0
2017-May-27 08:29N 44°03' E 039°05'0 0.0
2017-May-27 07:59N 44°03' E 039°05'0 0.0
2017-May-27 07:29N 44°03' E 039°05'0 0.0
2017-May-27 06:59N 44°03' E 039°05'0 0.0
2017-May-27 06:29N 44°03' E 039°05'0 0.1
2017-May-27 05:59N 44°03' E 039°05'0 0.1
2017-May-27 05:29N 44°03' E 039°05'0 0.2
2017-May-27 04:59N 44°03' E 039°05'0 0.1
2017-May-27 04:29N 44°03' E 039°05'0 0.0
2017-May-27 03:59N 44°03' E 039°05'0 0.1
2017-May-27 03:29N 44°03' E 039°05'0 0.1
2017-May-27 02:59N 44°03' E 039°05'0 0.0
2017-May-27 02:29N 44°03' E 039°05'0 0.0
2017-May-27 01:59N 44°03' E 039°05'0 0.0
2017-May-27 01:29N 44°03' E 039°05'0 0.0
2017-May-27 00:59N 44°03' E 039°05'0 0.1
2017-May-27 00:29N 44°03' E 039°05'0 0.0
2017-May-26 23:59N 44°03' E 039°05'0 0.1
2017-May-26 23:29N 44°03' E 039°05'0 0.0
2017-May-26 22:59N 44°03' E 039°05'0 0.0
2017-May-26 22:29N 44°03' E 039°05'0 0.1
2017-May-26 21:59N 44°03' E 039°05'0 0.0
2017-May-26 21:23N 44°03' E 039°05'0 0.0
2017-May-26 20:59N 44°03' E 039°05'0 0.1
2017-May-26 20:29N 44°03' E 039°05'0 0.0
2017-May-26 19:59N 44°03' E 039°05'0 0.0
2017-May-26 19:30N 44°03' E 039°05'0 0.0
2017-May-26 19:00N 44°03' E 039°05'0 0.0
2017-May-26 18:30N 44°03' E 039°05'0 0.1
2017-May-26 18:00N 44°03' E 039°05'0 0.4
2017-May-26 17:30N 44°03' E 039°05'4 7.8
2017-May-26 17:00N 43°60' E 039°02'612.0
2017-May-26 16:30N 43°58' E 038°54'713.9
2017-May-26 16:00N 43°55' E 038°45'714.1
2017-May-26 15:30N 43°53' E 038°36'714.3
2017-May-26 15:00N 43°51' E 038°26'1414.5
2017-May-26 14:00N 43°47' E 038°07'714.4
2017-May-26 13:30N 43°45' E 037°57'714.3
2017-May-26 13:00N 43°43' E 037°48'713.3
2017-May-26 12:31N 43°41' E 037°39'1 1.8
2017-May-26 12:01N 43°41' E 037°38'0 0.3
2017-May-26 11:30N 43°40' E 037°38'0 0.3
2017-May-26 11:00N 43°40' E 037°38'0 0.4
2017-May-26 10:25N 43°40' E 037°38'0 0.4
2017-May-26 10:00N 43°40' E 037°38'0 0.4
2017-May-26 09:31N 43°40' E 037°38'0 0.5
2017-May-26 09:00N 43°40' E 037°38'0 0.5
2017-May-26 08:30N 43°39' E 037°39'0 0.5
2017-May-26 08:00N 43°39' E 037°39'0 0.3
2017-May-26 07:30N 43°39' E 037°39'0 0.6
2017-May-26 07:00N 43°39' E 037°39'1 2.6
2017-May-26 06:30N 43°38' E 037°37'4 7.8
2017-May-26 06:00N 43°37' E 037°32'611.8
2017-May-26 05:30N 43°35' E 037°25'811.6
2017-May-26 04:50N 43°31' E 037°15'411.6
2017-May-26 04:30N 43°30' E 037°10'  
Track history (hours):
 
Tides and Currents Weather Stations Pressure Air Temp Water Temp Dewpoint Dewpoint Depression Visibility Wind Speed Wind Dir Waves Ship Positions

Kriti Ruby

Last reported at 2017-May-27 19:29 UTC. Time now 2017-May-27 19:28 UTC.
Position N 44°03' E 039°05'.

Length 183 m; draft 8.5 m.

Type: Tanker. MMSI: 240941000.

Date/timePositionNaut miles runAvg speedWind from/ knotsBaromVisibWave heightAir tempDewpointWater temp
2017-May-27 19:29N 44°03' E 039°05'0 0.1
2017-May-27 18:59N 44°03' E 039°05'0 0.1
2017-May-27 18:29N 44°03' E 039°05'0 0.1
2017-May-27 17:59N 44°03' E 039°05'0 0.1
2017-May-27 17:29N 44°03' E 039°05'0 0.0
2017-May-27 16:59N 44°03' E 039°05'0 0.0
2017-May-27 16:29N 44°03' E 039°05'0 0.0
2017-May-27 15:59N 44°03' E 039°05'0 0.0
2017-May-27 15:29N 44°03' E 039°05'0 0.0
2017-May-27 14:59N 44°03' E 039°05'0 0.0
2017-May-27 14:29N 44°03' E 039°05'0 0.1
2017-May-27 13:29N 44°03' E 039°05'0 0.0
2017-May-27 12:59N 44°03' E 039°05'0 0.0
2017-May-27 12:29N 44°03' E 039°05'0 0.1
2017-May-27 11:59N 44°03' E 039°05'0 0.0
2017-May-27 11:29N 44°03' E 039°05'0 0.0
2017-May-27 10:59N 44°03' E 039°05'0 0.1
2017-May-27 10:23N 44°03' E 039°05'0 0.0
2017-May-27 09:59N 44°03' E 039°05'0 0.0
2017-May-27 09:29N 44°03' E 039°05'0 0.0
2017-May-27 08:59N 44°03' E 039°05'0 0.0
2017-May-27 08:29N 44°03' E 039°05'0 0.0
2017-May-27 07:59N 44°03' E 039°05'0 0.0
2017-May-27 07:29N 44°03' E 039°05'0 0.0
2017-May-27 06:59N 44°03' E 039°05'0 0.0
2017-May-27 06:29N 44°03' E 039°05'0 0.1
2017-May-27 05:59N 44°03' E 039°05'0 0.1
2017-May-27 05:29N 44°03' E 039°05'0 0.2
2017-May-27 04:59N 44°03' E 039°05'0 0.1
2017-May-27 04:29N 44°03' E 039°05'0 0.0
2017-May-27 03:59N 44°03' E 039°05'0 0.1
2017-May-27 03:29N 44°03' E 039°05'0 0.1
2017-May-27 02:59N 44°03' E 039°05'0 0.0
2017-May-27 02:29N 44°03' E 039°05'0 0.0
2017-May-27 01:59N 44°03' E 039°05'0 0.0
2017-May-27 01:29N 44°03' E 039°05'0 0.0
2017-May-27 00:59N 44°03' E 039°05'0 0.1
2017-May-27 00:29N 44°03' E 039°05'0 0.0
2017-May-26 23:59N 44°03' E 039°05'0 0.1
2017-May-26 23:29N 44°03' E 039°05'0 0.0
2017-May-26 22:59N 44°03' E 039°05'0 0.0
2017-May-26 22:29N 44°03' E 039°05'0 0.1
2017-May-26 21:59N 44°03' E 039°05'0 0.0
2017-May-26 21:23N 44°03' E 039°05'0 0.0
2017-May-26 20:59N 44°03' E 039°05'0 0.1
2017-May-26 20:29N 44°03' E 039°05'0 0.0
2017-May-26 19:59N 44°03' E 039°05'0 0.0
2017-May-26 19:30N 44°03' E 039°05'0 0.0
2017-May-26 19:00N 44°03' E 039°05'0 0.0
2017-May-26 18:30N 44°03' E 039°05'0 0.1
2017-May-26 18:00N 44°03' E 039°05'0 0.4
2017-May-26 17:30N 44°03' E 039°05'4 7.8
2017-May-26 17:00N 43°60' E 039°02'612.0
2017-May-26 16:30N 43°58' E 038°54'713.9
2017-May-26 16:00N 43°55' E 038°45'714.1
2017-May-26 15:30N 43°53' E 038°36'714.3
2017-May-26 15:00N 43°51' E 038°26'1414.5
2017-May-26 14:00N 43°47' E 038°07'714.4
2017-May-26 13:30N 43°45' E 037°57'714.3
2017-May-26 13:00N 43°43' E 037°48'713.3
2017-May-26 12:31N 43°41' E 037°39'1 1.8
2017-May-26 12:01N 43°41' E 037°38'0 0.3
2017-May-26 11:30N 43°40' E 037°38'0 0.3
2017-May-26 11:00N 43°40' E 037°38'0 0.4
2017-May-26 10:25N 43°40' E 037°38'0 0.4
2017-May-26 10:00N 43°40' E 037°38'0 0.4
2017-May-26 09:31N 43°40' E 037°38'0 0.5
2017-May-26 09:00N 43°40' E 037°38'0 0.5
2017-May-26 08:30N 43°39' E 037°39'0 0.5
2017-May-26 08:00N 43°39' E 037°39'0 0.3
2017-May-26 07:30N 43°39' E 037°39'0 0.6
2017-May-26 07:00N 43°39' E 037°39'1 2.6
2017-May-26 06:30N 43°38' E 037°37'4 7.8
2017-May-26 06:00N 43°37' E 037°32'611.8
2017-May-26 05:30N 43°35' E 037°25'811.6
2017-May-26 04:50N 43°31' E 037°15'411.6
2017-May-26 04:30N 43°30' E 037°10'  

Dump ship's entire track history